createdAt,value
2022-10-28T00:02:02.205Z,100.00
2022-10-28T00:05:04.961Z,100.00
2022-10-28T00:08:07.462Z,100.00
2022-10-28T00:11:11.937Z,100.00
2022-10-28T00:14:15.780Z,100.00
2022-10-28T00:17:18.384Z,100.00
2022-10-28T00:20:21.064Z,100.00
2022-10-28T00:23:23.598Z,100.00
2022-10-28T00:26:28.541Z,100.00
2022-10-28T00:29:32.786Z,100.00
2022-10-28T00:32:35.287Z,100.00
2022-10-28T00:35:37.778Z,100.00
2022-10-28T00:38:41.138Z,100.00
2022-10-28T00:41:46.217Z,100.00
2022-10-28T00:44:55.284Z,100.00
2022-10-28T00:48:01.063Z,100.00
2022-10-28T00:51:05.277Z,100.00
2022-10-28T00:54:09.011Z,100.00
2022-10-28T00:57:15.250Z,100.00
2022-10-28T01:00:19.438Z,100.00
2022-10-28T01:03:22.235Z,100.00
2022-10-28T01:06:27.782Z,100.00
2022-10-28T01:09:30.309Z,100.00
2022-10-28T01:12:42.448Z,100.00
2022-10-28T01:15:53.461Z,100.00
2022-10-28T01:19:10.445Z,100.00
2022-10-28T01:22:21.859Z,100.00
2022-10-28T01:25:45.373Z,100.00
2022-10-28T01:29:30.010Z,100.00
2022-10-28T01:32:44.418Z,100.00
2022-10-28T01:35:53.635Z,100.00
2022-10-28T01:39:04.614Z,100.00
2022-10-28T01:42:20.113Z,100.00
2022-10-28T01:45:27.815Z,100.00
2022-10-28T01:48:35.741Z,100.00
2022-10-28T01:51:42.801Z,100.00
2022-10-28T01:54:49.019Z,100.00
2022-10-28T01:57:53.598Z,100.00
2022-10-28T02:00:57.759Z,100.00
2022-10-28T02:04:03.132Z,100.00
2022-10-28T02:07:05.876Z,100.00
2022-10-28T02:10:17.200Z,100.00
2022-10-28T02:13:22.553Z,100.00
2022-10-28T02:16:31.334Z,100.00
2022-10-28T02:19:44.564Z,100.00
2022-10-28T02:22:51.187Z,100.00
2022-10-28T02:25:58.617Z,100.00
2022-10-28T02:29:06.662Z,100.00
2022-10-28T02:32:12.337Z,100.00
2022-10-28T02:35:20.092Z,100.00
2022-10-28T02:38:27.776Z,100.00
2022-10-28T02:41:35.632Z,100.00
2022-10-28T02:44:42.859Z,100.00
2022-10-28T02:47:49.073Z,100.00
2022-10-28T02:50:59.752Z,100.00
2022-10-28T02:54:07.356Z,100.00
2022-10-28T02:57:13.277Z,100.00
2022-10-28T03:00:18.205Z,100.00
2022-10-28T03:03:20.753Z,100.00
2022-10-28T03:09:28.041Z,100.00
2022-10-28T03:12:30.538Z,100.00
2022-10-28T03:15:33.019Z,100.00
2022-10-28T03:18:35.518Z,100.00
2022-10-28T03:21:39.339Z,100.00
2022-10-28T03:24:41.839Z,100.00
2022-10-28T03:27:44.323Z,100.00
2022-10-28T03:30:46.850Z,100.00
2022-10-28T03:33:49.301Z,100.00
2022-10-28T03:36:53.142Z,100.00
2022-10-28T03:39:55.640Z,100.00
2022-10-28T03:42:58.107Z,100.00
2022-10-28T03:46:00.585Z,100.00
2022-10-28T03:49:03.082Z,100.00
2022-10-28T03:52:06.994Z,100.00
2022-10-28T03:55:09.805Z,100.00
2022-10-28T03:58:12.300Z,100.00
2022-10-28T04:01:14.844Z,100.00
2022-10-28T04:04:17.405Z,100.00
2022-10-28T04:07:21.307Z,100.00
2022-10-28T04:10:23.830Z,100.00
2022-10-28T04:13:26.292Z,100.00
2022-10-28T04:16:28.795Z,100.00
2022-10-28T04:19:31.269Z,100.00
2022-10-28T04:22:35.111Z,100.00
2022-10-28T04:25:37.580Z,100.00
2022-10-28T04:28:40.069Z,100.00
2022-10-28T04:31:42.546Z,100.00
2022-10-28T04:34:45.046Z,100.00
2022-10-28T04:37:48.878Z,100.00
2022-10-28T04:40:51.481Z,100.00
2022-10-28T04:43:55.957Z,100.00
2022-10-28T04:46:58.446Z,100.00
2022-10-28T04:50:01.055Z,100.00
2022-10-28T04:53:04.911Z,100.00
2022-10-28T04:56:07.996Z,100.00
2022-10-28T04:59:10.600Z,100.00
2022-10-28T05:02:13.160Z,100.00
2022-10-28T05:08:20.721Z,100.00
2022-10-28T05:11:23.459Z,100.00
2022-10-28T05:14:26.118Z,100.00
2022-10-28T05:17:28.605Z,100.00
2022-10-28T05:20:31.142Z,100.00
2022-10-28T05:23:34.966Z,100.00
2022-10-28T05:26:37.483Z,100.00
2022-10-28T05:29:39.954Z,100.00
2022-10-28T05:32:43.018Z,100.00
2022-10-28T05:35:45.515Z,100.00
2022-10-28T05:38:49.675Z,100.00
2022-10-28T05:41:52.159Z,100.00
2022-10-28T05:44:54.631Z,100.00
2022-10-28T05:47:57.444Z,100.00
2022-10-28T05:50:59.915Z,100.00
2022-10-28T05:54:03.805Z,100.00
2022-10-28T05:57:06.276Z,100.00
2022-10-28T06:00:10.141Z,100.00
2022-10-28T06:03:13.455Z,100.00
2022-10-28T06:06:15.945Z,100.00
2022-10-28T06:09:19.750Z,100.00
2022-10-28T06:12:21.898Z,100.00
2022-10-28T06:15:24.706Z,100.00
2022-10-28T06:18:27.165Z,100.00
2022-10-28T06:21:29.710Z,100.00
2022-10-28T06:24:33.513Z,100.00
2022-10-28T06:27:36.014Z,100.00
2022-10-28T06:30:38.529Z,100.00
2022-10-28T06:33:41.020Z,100.00
2022-10-28T06:36:43.494Z,100.00
2022-10-28T06:39:49.735Z,100.00
2022-10-28T06:42:57.953Z,100.00
2022-10-28T06:46:01.381Z,100.00
2022-10-28T06:49:05.756Z,100.00
2022-10-28T06:52:08.258Z,100.00
2022-10-28T06:55:12.206Z,100.00
2022-10-28T06:58:14.692Z,100.00
2022-10-28T07:01:17.224Z,100.00
2022-10-28T07:04:19.797Z,100.00
2022-10-28T07:07:22.363Z,100.00
2022-10-28T07:10:26.342Z,100.00
2022-10-28T07:13:29.099Z,100.00
2022-10-28T07:16:31.586Z,100.00
2022-10-28T07:19:34.072Z,100.00
2022-10-28T07:22:36.569Z,100.00
2022-10-28T07:25:40.538Z,100.00
2022-10-28T07:28:43.227Z,100.00
2022-10-28T07:31:45.745Z,100.00
2022-10-28T07:34:48.209Z,100.00
2022-10-28T07:37:50.709Z,100.00
2022-10-28T07:40:54.575Z,100.00
2022-10-28T07:43:57.092Z,100.00
2022-10-28T07:46:59.593Z,100.00
2022-10-28T07:50:02.096Z,100.00
2022-10-28T07:53:04.674Z,100.00
2022-10-28T07:56:13.493Z,100.00
2022-10-28T07:59:15.978Z,100.00
2022-10-28T08:02:20.347Z,100.00
2022-10-28T08:05:22.853Z,100.00
2022-10-28T08:08:25.321Z,100.00
2022-10-28T08:11:29.195Z,100.00
2022-10-28T08:14:31.682Z,100.00
2022-10-28T08:17:34.151Z,100.00
2022-10-28T08:20:36.632Z,100.00
2022-10-28T08:23:39.442Z,100.00
2022-10-28T08:26:43.261Z,100.00
2022-10-28T08:29:45.751Z,100.00
2022-10-28T08:32:48.212Z,100.00
2022-10-28T08:35:51.958Z,100.00
2022-10-28T08:38:54.449Z,100.00
2022-10-28T08:42:10.758Z,100.00
2022-10-28T08:45:20.501Z,100.00
2022-10-28T08:48:31.262Z,100.00
2022-10-28T08:51:41.982Z,100.00
2022-10-28T08:54:50.363Z,100.00
2022-10-28T08:57:57.410Z,100.00
2022-10-28T09:01:00.468Z,100.00
2022-10-28T09:04:11.877Z,100.00
2022-10-28T09:07:18.323Z,100.00
2022-10-28T09:10:39.641Z,100.00
2022-10-28T09:13:58.566Z,100.00
2022-10-28T09:17:15.975Z,100.00
2022-10-28T09:20:20.892Z,97.27
2022-10-28T09:23:25.467Z,100.00
2022-10-28T09:26:45.840Z,99.29
2022-10-28T09:30:00.287Z,97.20
2022-10-28T09:33:14.979Z,95.09
2022-10-28T09:36:23.467Z,90.70
2022-10-28T09:39:29.631Z,89.94
2022-10-28T09:42:36.991Z,90.65
2022-10-28T09:45:46.066Z,93.01
2022-10-28T09:48:50.623Z,90.67
2022-10-28T09:52:00.575Z,88.32
2022-10-28T09:55:14.863Z,87.08
2022-10-28T09:58:19.287Z,85.61
2022-10-28T10:01:23.319Z,80.16
2022-10-28T10:04:31.107Z,79.77
2022-10-28T10:07:37.720Z,78.64
2022-10-28T10:10:46.741Z,75.58
2022-10-28T10:13:51.113Z,75.50
2022-10-28T10:16:57.588Z,77.26
2022-10-28T10:20:07.178Z,75.24
2022-10-28T10:23:23.314Z,69.55
2022-10-28T10:26:25.876Z,68.63
2022-10-28T10:29:30.139Z,66.70
2022-10-28T10:32:34.998Z,64.05
2022-10-28T10:35:38.680Z,66.17
2022-10-28T10:38:48.478Z,61.18
2022-10-28T10:41:50.946Z,62.12
2022-10-28T10:45:02.296Z,63.34
2022-10-28T10:48:14.053Z,61.17
2022-10-28T10:51:25.458Z,59.70
2022-10-28T10:54:30.957Z,57.68
2022-10-28T10:57:34.269Z,53.28
2022-10-28T11:00:38.612Z,55.51
2022-10-28T11:03:50.276Z,53.03
2022-10-28T11:06:55.869Z,54.26
2022-10-28T11:09:58.484Z,53.56
2022-10-28T11:13:05.608Z,54.70
2022-10-28T11:16:17.502Z,55.59
2022-10-28T11:19:23.516Z,55.85
2022-10-28T11:22:38.430Z,57.97
2022-10-28T11:25:45.113Z,58.18
2022-10-28T11:28:59.653Z,61.40
2022-10-28T11:32:22.825Z,66.17
2022-10-28T11:35:37.827Z,67.94
2022-10-28T11:38:54.777Z,70.84
2022-10-28T11:42:08.585Z,70.81
2022-10-28T11:45:20.094Z,74.02
2022-10-28T11:48:36.409Z,69.84
2022-10-28T11:51:50.356Z,67.81
2022-10-28T11:55:05.076Z,67.06
2022-10-28T11:58:32.225Z,67.45
2022-10-28T12:01:46.484Z,64.08
2022-10-28T12:04:59.331Z,67.62
2022-10-28T12:08:12.127Z,66.99
2022-10-28T12:11:25.572Z,71.92
2022-10-28T12:14:39.124Z,73.00
2022-10-28T12:17:46.921Z,73.86
2022-10-28T12:20:57.550Z,74.45
2022-10-28T12:24:01.767Z,68.34
2022-10-28T12:27:17.030Z,68.49
2022-10-28T12:30:24.577Z,62.96
2022-10-28T12:33:34.294Z,58.12
2022-10-28T12:36:42.426Z,58.37
2022-10-28T12:39:57.372Z,61.42
2022-10-28T12:43:05.055Z,60.40
2022-10-28T12:46:17.341Z,60.14
2022-10-28T12:49:26.112Z,60.57
2022-10-28T12:52:39.044Z,58.69
2022-10-28T12:55:47.901Z,57.36
2022-10-28T12:58:59.641Z,57.74
2022-10-28T13:02:04.001Z,60.71
2022-10-28T13:05:07.581Z,58.41
2022-10-28T13:08:44.472Z,52.72
2022-10-28T13:12:22.964Z,50.79
2022-10-28T13:15:48.592Z,52.42
2022-10-28T13:19:20.518Z,48.43
2022-10-28T13:22:47.067Z,51.28
2022-10-28T13:25:59.418Z,51.27
2022-10-28T13:29:07.021Z,54.33
2022-10-28T13:32:32.767Z,56.14
2022-10-28T13:35:38.466Z,58.59
2022-10-28T13:38:41.509Z,60.37
2022-10-28T13:41:47.935Z,62.96
2022-10-28T13:44:53.225Z,65.07
2022-10-28T13:48:36.148Z,72.33
2022-10-28T13:51:48.117Z,73.03
2022-10-28T13:54:55.533Z,73.62
2022-10-28T13:58:04.136Z,74.69
2022-10-28T14:01:38.223Z,75.89
2022-10-28T14:04:43.826Z,76.34
2022-10-28T14:07:55.373Z,76.78
2022-10-28T14:11:03.209Z,80.44
2022-10-28T14:14:05.832Z,78.96
2022-10-28T14:17:21.864Z,81.02
2022-10-28T14:20:39.176Z,80.77
2022-10-28T14:24:07.879Z,80.85
2022-10-28T14:27:30.403Z,83.73
2022-10-28T14:30:32.939Z,84.54
2022-10-28T14:33:36.402Z,86.14
2022-10-28T14:36:48.916Z,87.50
2022-10-28T14:40:06.949Z,88.90
2022-10-28T14:43:27.837Z,86.26
2022-10-28T14:46:48.028Z,88.95
2022-10-28T14:50:01.557Z,90.08
2022-10-28T14:53:08.622Z,91.02
2022-10-28T14:56:19.591Z,92.05
2022-10-28T14:59:26.817Z,92.53
2022-10-28T15:02:30.857Z,93.14
2022-10-28T15:05:34.760Z,93.17
2022-10-28T15:08:38.668Z,93.65
2022-10-28T15:11:46.101Z,94.38
2022-10-28T15:14:51.997Z,94.29
2022-10-28T15:17:54.908Z,94.43
2022-10-28T15:21:09.205Z,95.68
2022-10-28T15:24:15.187Z,95.25
2022-10-28T15:27:18.045Z,95.30
2022-10-28T15:30:23.573Z,95.65
2022-10-28T15:33:31.015Z,96.00
2022-10-28T15:36:33.688Z,96.05
2022-10-28T15:39:39.525Z,96.10
2022-10-28T15:42:45.593Z,96.57
2022-10-28T15:45:48.254Z,96.44
2022-10-28T15:48:53.036Z,96.75
2022-10-28T15:52:32.763Z,96.81
2022-10-28T15:59:09.405Z,96.96
2022-10-28T16:02:40.336Z,96.63
2022-10-28T16:05:47.206Z,96.98
2022-10-28T16:08:59.438Z,97.31
2022-10-28T16:12:05.776Z,97.67
2022-10-28T16:15:15.042Z,97.94
2022-10-28T16:18:17.571Z,97.67
2022-10-28T16:21:22.692Z,98.04
2022-10-28T16:24:25.201Z,98.36
2022-10-28T16:27:32.463Z,98.24
2022-10-28T16:30:34.995Z,98.19
2022-10-28T16:33:39.628Z,98.37
2022-10-28T16:36:42.108Z,98.66
2022-10-28T16:39:44.584Z,99.00
2022-10-28T16:42:48.433Z,99.26
2022-10-28T16:45:52.268Z,99.56
2022-10-28T16:48:54.762Z,98.90
2022-10-28T16:51:57.253Z,99.27
2022-10-28T16:54:59.877Z,99.08
2022-10-28T16:58:03.720Z,99.11
2022-10-28T17:01:06.620Z,99.92
2022-10-28T17:04:09.909Z,100.00
2022-10-28T17:07:16.144Z,100.00
2022-10-28T17:10:18.731Z,100.00
2022-10-28T17:13:22.581Z,100.00
2022-10-28T17:16:25.295Z,100.00
2022-10-28T17:19:27.784Z,100.00
2022-10-28T17:22:30.256Z,99.74
2022-10-28T17:25:32.827Z,99.25
2022-10-28T17:28:36.695Z,99.48
2022-10-28T17:31:39.266Z,99.72
2022-10-28T17:34:41.870Z,100.00
2022-10-28T17:37:44.340Z,100.00
2022-10-28T17:40:54.489Z,100.00
2022-10-28T17:43:58.292Z,100.00
2022-10-28T17:47:01.054Z,99.59
2022-10-28T17:50:03.749Z,98.86
2022-10-28T17:53:06.242Z,98.97
2022-10-28T17:56:09.474Z,99.21
2022-10-28T17:59:13.306Z,100.00
2022-10-28T18:02:15.912Z,99.26
2022-10-28T18:05:18.536Z,100.00
2022-10-28T18:08:21.498Z,99.32
2022-10-28T18:11:24.109Z,98.87
2022-10-28T18:14:28.409Z,98.93
2022-10-28T18:17:30.880Z,99.40
2022-10-28T18:20:33.377Z,99.44
2022-10-28T18:23:36.147Z,98.11
2022-10-28T18:26:40.037Z,98.66
2022-10-28T18:29:43.844Z,98.88
2022-10-28T18:32:46.328Z,99.54
2022-10-28T18:35:48.859Z,100.00
2022-10-28T18:38:52.070Z,99.92
2022-10-28T18:41:54.542Z,100.00
2022-10-28T18:44:58.861Z,100.00
2022-10-28T18:48:01.542Z,99.96
2022-10-28T18:51:06.647Z,99.86
2022-10-28T18:54:09.299Z,100.00
2022-10-28T18:57:11.777Z,100.00
2022-10-28T19:00:18.815Z,98.45
2022-10-28T19:03:23.953Z,99.76
2022-10-28T19:06:29.733Z,100.00
2022-10-28T19:09:32.249Z,100.00
2022-10-28T19:12:37.060Z,100.00
2022-10-28T19:15:48.397Z,99.98
2022-10-28T19:18:55.371Z,100.00
2022-10-28T19:21:57.973Z,100.00
2022-10-28T19:25:00.458Z,100.00
2022-10-28T19:28:02.949Z,100.00
2022-10-28T19:31:09.294Z,100.00
2022-10-28T19:34:11.809Z,100.00
2022-10-28T19:37:14.277Z,100.00
2022-10-28T19:40:16.750Z,100.00
2022-10-28T19:43:19.249Z,100.00
2022-10-28T19:46:23.307Z,100.00
2022-10-28T19:49:28.680Z,100.00
2022-10-28T19:52:33.477Z,100.00
2022-10-28T19:55:35.953Z,100.00
2022-10-28T19:58:38.435Z,100.00
2022-10-28T20:01:42.426Z,100.00
2022-10-28T20:04:45.027Z,100.00
2022-10-28T20:07:47.515Z,100.00
2022-10-28T20:10:57.789Z,100.00
2022-10-28T20:14:01.979Z,100.00
2022-10-28T20:17:07.044Z,100.00
2022-10-28T20:20:10.543Z,100.00
2022-10-28T20:23:13.096Z,100.00
2022-10-28T20:26:15.881Z,100.00
2022-10-28T20:29:18.536Z,100.00
2022-10-28T20:32:24.438Z,100.00
2022-10-28T20:35:26.910Z,100.00
2022-10-28T20:38:29.784Z,100.00
2022-10-28T20:41:33.741Z,100.00
2022-10-28T20:44:36.200Z,100.00
2022-10-28T20:47:40.038Z,100.00
2022-10-28T20:50:50.302Z,100.00
2022-10-28T20:53:52.902Z,100.00
2022-10-28T20:56:55.382Z,100.00
2022-10-28T20:59:57.857Z,100.00
2022-10-28T21:03:02.429Z,100.00
2022-10-28T21:06:05.351Z,100.00
2022-10-28T21:09:08.879Z,100.00
2022-10-28T21:12:11.528Z,100.00
2022-10-28T21:15:14.060Z,100.00
2022-10-28T21:18:17.905Z,100.00
2022-10-28T21:21:21.463Z,100.00
2022-10-28T21:24:24.179Z,100.00
2022-10-28T21:27:26.651Z,100.00
2022-10-28T21:30:29.584Z,100.00
2022-10-28T21:33:34.398Z,100.00
2022-10-28T21:36:36.976Z,100.00
2022-10-28T21:39:39.749Z,100.00
2022-10-28T21:42:42.886Z,100.00
2022-10-28T21:45:45.368Z,100.00
2022-10-28T21:48:49.426Z,100.00
2022-10-28T21:51:51.896Z,100.00
2022-10-28T21:54:54.398Z,100.00
2022-10-28T21:57:57.124Z,100.00
2022-10-28T22:01:04.183Z,100.00
2022-10-28T22:04:08.346Z,100.00
2022-10-28T22:07:10.834Z,100.00
2022-10-28T22:10:13.347Z,100.00
2022-10-28T22:13:15.957Z,100.00
2022-10-28T22:16:19.043Z,100.00
2022-10-28T22:19:22.884Z,100.00
2022-10-28T22:22:26.501Z,100.00
2022-10-28T22:25:29.011Z,100.00
2022-10-28T22:28:32.294Z,100.00
2022-10-28T22:31:34.982Z,100.00
2022-10-28T22:34:38.809Z,100.00
2022-10-28T22:37:41.297Z,100.00
2022-10-28T22:40:43.870Z,100.00
2022-10-28T22:43:49.132Z,100.00
2022-10-28T22:46:51.698Z,100.00
2022-10-28T22:49:55.528Z,100.00
2022-10-28T22:52:58.068Z,100.00
2022-10-28T22:56:00.582Z,100.00
2022-10-28T22:59:03.276Z,100.00
2022-10-28T23:02:05.848Z,100.00
2022-10-28T23:05:10.461Z,100.00
2022-10-28T23:08:16.013Z,100.00
2022-10-28T23:11:20.098Z,100.00
2022-10-28T23:14:22.596Z,100.00
2022-10-28T23:17:25.093Z,100.00
2022-10-28T23:20:30.245Z,100.00
2022-10-28T23:23:33.109Z,100.00
2022-10-28T23:26:36.151Z,100.00
2022-10-28T23:29:38.658Z,100.00
2022-10-28T23:32:41.387Z,100.00
2022-10-28T23:35:45.232Z,100.00
2022-10-28T23:38:47.722Z,100.00
2022-10-28T23:41:50.223Z,100.00
2022-10-28T23:44:52.693Z,100.00
2022-10-28T23:47:55.173Z,100.00
2022-10-28T23:50:59.247Z,100.00
2022-10-28T23:54:01.784Z,100.00
2022-10-28T23:57:04.460Z,100.00
